createdAt,value
2019-03-19T00:02:05.072Z,101967.83
2019-03-19T00:06:58.218Z,101972.57
2019-03-19T00:11:51.401Z,101965.10
2019-03-19T00:16:44.813Z,101968.59
2019-03-19T00:21:37.882Z,101981.08
2019-03-19T00:26:31.017Z,101968.73
2019-03-19T00:31:24.156Z,101977.92
2019-03-19T00:36:17.648Z,101979.23
2019-03-19T00:41:10.781Z,101978.60
2019-03-19T00:46:03.895Z,101987.88
2019-03-19T00:50:56.980Z,101984.52
2019-03-19T00:55:50.245Z,101980.94
2019-03-19T01:00:43.328Z,101979.95
2019-03-19T01:05:36.471Z,101989.05
2019-03-19T01:10:29.556Z,101994.02
2019-03-19T01:15:22.705Z,102004.38
2019-03-19T01:20:15.924Z,102009.81
2019-03-19T01:25:09.619Z,102012.61
2019-03-19T01:30:03.193Z,102009.49
2019-03-19T01:34:56.360Z,102007.94
2019-03-19T01:39:49.569Z,102013.36
2019-03-19T01:44:42.645Z,102009.48
2019-03-19T01:49:35.773Z,102026.02
2019-03-19T01:54:28.985Z,102021.96
2019-03-19T01:59:22.103Z,102019.78
2019-03-19T02:04:15.225Z,102025.50
2019-03-19T02:09:09.075Z,102026.77
2019-03-19T02:14:02.752Z,102038.27
2019-03-19T02:18:56.478Z,102035.97
2019-03-19T02:23:49.607Z,102046.91
2019-03-19T02:28:42.756Z,102035.72
2019-03-19T02:33:35.944Z,102037.08
2019-03-19T02:38:29.044Z,102040.61
2019-03-19T02:43:22.901Z,102045.88
2019-03-19T02:48:16.318Z,102049.77
2019-03-19T02:53:09.433Z,102057.79
2019-03-19T02:58:02.586Z,102057.56
2019-03-19T03:02:55.755Z,102071.38
2019-03-19T03:07:49.022Z,102091.88
2019-03-19T03:12:42.235Z,102095.78
2019-03-19T03:17:35.465Z,102102.02
2019-03-19T03:22:28.527Z,102102.12
2019-03-19T03:27:22.134Z,102106.35
2019-03-19T03:32:15.594Z,102115.83
2019-03-19T03:37:09.658Z,102116.62
2019-03-19T03:42:02.754Z,102121.00
2019-03-19T03:46:56.204Z,102113.12
2019-03-19T03:51:49.413Z,102118.84
2019-03-19T03:56:42.570Z,102118.94
2019-03-19T04:01:35.815Z,102133.00
2019-03-19T04:06:28.952Z,102144.50
2019-03-19T04:11:22.079Z,102145.33
2019-03-19T04:16:15.302Z,102140.38
2019-03-19T04:21:08.641Z,102153.11
2019-03-19T04:26:01.810Z,102159.31
2019-03-19T04:30:54.930Z,102155.66
2019-03-19T04:35:48.086Z,102166.95
2019-03-19T04:40:41.901Z,102157.80
2019-03-19T04:45:35.593Z,102155.19
2019-03-19T04:50:29.382Z,102162.70
2019-03-19T04:55:22.995Z,102159.84
2019-03-19T05:00:16.854Z,102174.44
2019-03-19T05:05:10.772Z,102174.03
2019-03-19T05:10:05.449Z,102175.08
2019-03-19T05:14:58.622Z,102183.89
2019-03-19T05:19:59.514Z,102189.02
2019-03-19T05:24:52.648Z,102179.84
2019-03-19T05:29:45.752Z,102189.47
2019-03-19T05:34:38.870Z,102195.20
2019-03-19T05:39:31.979Z,102195.94
2019-03-19T05:44:25.244Z,102206.22
2019-03-19T05:49:18.462Z,102206.61
2019-03-19T05:54:11.593Z,102203.51
2019-03-19T05:59:04.733Z,102204.83
2019-03-19T06:03:58.005Z,102199.02
2019-03-19T06:08:51.117Z,102204.42
2019-03-19T06:13:44.288Z,102214.03
2019-03-19T06:18:37.836Z,102237.76
2019-03-19T06:23:31.291Z,102240.12
2019-03-19T06:28:24.477Z,102242.55
2019-03-19T06:33:17.704Z,102236.67
2019-03-19T06:38:10.772Z,102241.16
2019-03-19T06:43:04.031Z,102251.78
2019-03-19T06:47:57.244Z,102258.27
2019-03-19T06:52:50.536Z,102273.67
2019-03-19T06:57:43.781Z,102274.34
2019-03-19T07:02:37.075Z,102258.48
2019-03-19T07:07:30.292Z,102251.58
2019-03-19T07:12:23.519Z,102264.70
2019-03-19T07:17:16.756Z,102263.83
2019-03-19T07:22:09.975Z,102260.36
2019-03-19T07:27:03.260Z,102265.45
2019-03-19T07:31:56.369Z,102267.52
2019-03-19T07:36:51.411Z,102271.48
2019-03-19T07:41:44.622Z,102272.05
2019-03-19T07:46:37.922Z,102271.77
2019-03-19T07:51:31.311Z,102261.36
2019-03-19T07:56:24.654Z,102277.33
2019-03-19T08:01:17.891Z,102271.83
2019-03-19T08:06:10.998Z,102272.84
2019-03-19T08:11:04.217Z,102271.81
2019-03-19T08:15:57.402Z,102274.67
2019-03-19T08:20:50.623Z,102271.30
2019-03-19T08:25:43.827Z,102259.80
2019-03-19T08:30:37.131Z,102259.92
2019-03-19T08:35:30.353Z,102256.28
2019-03-19T08:40:23.582Z,102260.72
2019-03-19T08:45:16.715Z,102277.69
2019-03-19T08:50:13.758Z,102279.45
2019-03-19T08:55:07.007Z,102273.54
2019-03-19T09:00:00.323Z,102267.50
2019-03-19T09:04:53.917Z,102273.89
2019-03-19T09:09:47.179Z,102271.66
2019-03-19T09:14:40.401Z,102286.06
2019-03-19T09:19:33.586Z,102308.00
2019-03-19T09:24:26.707Z,102303.61
2019-03-19T09:29:19.915Z,102301.66
2019-03-19T09:34:13.308Z,102315.89
2019-03-19T09:39:08.220Z,102308.95
2019-03-19T09:44:01.555Z,102320.18
2019-03-19T09:48:54.630Z,102333.03
2019-03-19T09:53:47.776Z,102325.97
2019-03-19T09:58:40.978Z,102333.84
2019-03-19T10:03:34.311Z,102338.31
2019-03-19T10:08:27.507Z,102346.55
2019-03-19T10:13:20.723Z,102342.54
2019-03-19T10:18:14.106Z,102357.86
2019-03-19T10:23:07.414Z,102347.88
2019-03-19T10:28:00.637Z,102340.34
2019-03-19T10:32:53.826Z,102342.58
2019-03-19T10:37:47.206Z,102350.45
2019-03-19T10:42:40.328Z,102352.42
2019-03-19T10:47:33.565Z,102352.61
2019-03-19T10:52:26.800Z,102345.89
2019-03-19T10:57:19.973Z,102349.70
2019-03-19T11:02:13.324Z,102348.72
2019-03-19T11:07:06.655Z,102354.50
2019-03-19T11:11:59.954Z,102364.98
2019-03-19T11:16:53.291Z,102362.84
2019-03-19T11:21:46.955Z,102365.03
2019-03-19T11:26:40.214Z,102365.73
2019-03-19T11:31:33.517Z,102356.35
2019-03-19T11:36:26.762Z,102353.97
2019-03-19T11:41:20.080Z,102354.64
2019-03-19T11:46:13.347Z,102349.84
2019-03-19T11:51:06.582Z,102336.97
2019-03-19T11:55:59.791Z,102336.03
2019-03-19T12:00:56.088Z,102338.22
2019-03-19T12:05:49.301Z,102351.53
2019-03-19T12:10:42.534Z,102341.31
2019-03-19T12:15:35.719Z,102339.55
2019-03-19T12:20:28.940Z,102334.16
2019-03-19T12:25:22.063Z,102353.23
2019-03-19T12:30:22.233Z,102343.93
2019-03-19T12:35:10.953Z,102317.90
2019-03-19T12:40:06.616Z,102319.58
2019-03-19T12:44:59.821Z,102311.56
2019-03-19T12:49:53.349Z,102320.16
2019-03-19T12:54:46.666Z,102315.00
2019-03-19T12:59:42.438Z,102310.96
2019-03-19T13:04:34.893Z,102311.80
2019-03-19T13:09:27.984Z,102300.55
2019-03-19T13:14:21.317Z,102310.60
2019-03-19T13:19:14.633Z,102309.29
2019-03-19T13:24:07.837Z,102308.33
2019-03-19T13:29:01.038Z,102323.64
2019-03-19T13:33:54.173Z,102321.34
2019-03-19T13:38:47.287Z,102314.05
2019-03-19T13:43:40.394Z,102324.64
2019-03-19T13:48:33.993Z,102325.23
2019-03-19T13:53:27.198Z,102324.92
2019-03-19T13:58:20.662Z,102318.35
2019-03-19T14:03:13.974Z,102326.56
2019-03-19T14:08:07.189Z,102328.12
2019-03-19T14:13:00.401Z,102321.39
2019-03-19T14:17:53.625Z,102317.80
2019-03-19T14:22:46.838Z,102322.11
2019-03-19T14:27:39.951Z,102330.77
2019-03-19T14:32:33.285Z,102334.36
2019-03-19T14:37:26.514Z,102335.52
2019-03-19T14:42:19.879Z,102344.45
2019-03-19T14:47:13.175Z,102341.80
2019-03-19T14:52:06.407Z,102344.42
2019-03-19T14:56:59.752Z,102346.41
2019-03-19T15:01:53.047Z,102342.22
2019-03-19T15:06:46.350Z,102343.62
2019-03-19T15:11:39.695Z,102341.78
2019-03-19T15:16:32.912Z,102333.12
2019-03-19T15:21:26.268Z,102341.87
2019-03-19T15:26:19.844Z,102341.52
2019-03-19T15:31:13.061Z,102340.91
2019-03-19T15:36:06.383Z,102339.16
2019-03-19T15:40:59.624Z,102341.91
2019-03-19T15:45:52.990Z,102335.66
2019-03-19T15:50:46.184Z,102331.45
2019-03-19T15:55:39.365Z,102336.95
2019-03-19T16:00:32.565Z,102342.58
2019-03-19T16:05:25.791Z,102344.41
2019-03-19T16:10:18.928Z,102346.44
2019-03-19T16:15:13.103Z,102348.25
2019-03-19T16:20:09.683Z,102357.11
2019-03-19T16:25:02.939Z,102365.58
2019-03-19T16:29:56.137Z,102361.97
2019-03-19T16:34:49.417Z,102367.57
2019-03-19T16:39:42.777Z,102369.56
2019-03-19T16:44:36.000Z,102371.70
2019-03-19T16:49:31.160Z,102381.41
2019-03-19T16:54:24.386Z,102387.91
2019-03-19T16:59:17.687Z,102395.81
2019-03-19T17:04:10.895Z,102397.00
2019-03-19T17:09:07.701Z,102397.89
2019-03-19T17:14:01.016Z,102399.06
2019-03-19T17:18:54.236Z,102403.92
2019-03-19T17:23:47.432Z,102408.78
2019-03-19T17:28:40.649Z,102423.64
2019-03-19T17:33:33.847Z,102422.20
2019-03-19T17:38:27.075Z,102420.67
2019-03-19T17:43:20.368Z,102429.52
2019-03-19T17:48:16.373Z,102440.11
2019-03-19T17:53:08.624Z,102439.95
2019-03-19T17:58:01.804Z,102441.66
2019-03-19T18:02:54.953Z,102445.08
2019-03-19T18:07:48.039Z,102454.41
2019-03-19T18:12:41.160Z,102458.83
2019-03-19T18:17:34.423Z,102473.02
2019-03-19T18:22:27.566Z,102472.28
2019-03-19T18:27:20.780Z,102473.94
2019-03-19T18:32:13.973Z,102479.55
2019-03-19T18:37:07.134Z,102480.98
2019-03-19T18:42:00.362Z,102484.47
2019-03-19T18:46:53.450Z,102488.39
2019-03-19T18:51:46.728Z,102491.23
2019-03-19T18:56:39.836Z,102491.58
2019-03-19T19:01:33.206Z,102507.09
2019-03-19T19:06:26.401Z,102505.05
2019-03-19T19:11:19.634Z,102511.70
2019-03-19T19:16:12.898Z,102524.05
2019-03-19T19:21:06.233Z,102522.98
2019-03-19T19:25:59.551Z,102527.73
2019-03-19T19:30:52.611Z,102534.05
2019-03-19T19:35:45.778Z,102540.08
2019-03-19T19:40:39.015Z,102538.59
2019-03-19T19:45:32.247Z,102544.78
2019-03-19T19:50:25.560Z,102545.23
2019-03-19T19:55:18.747Z,102547.02
2019-03-19T20:00:14.742Z,102550.66
2019-03-19T20:05:08.135Z,102554.30
2019-03-19T20:10:01.386Z,102557.96
2019-03-19T20:14:54.769Z,102565.18
2019-03-19T20:19:47.944Z,102561.72
2019-03-19T20:24:41.238Z,102565.30
2019-03-19T20:29:36.992Z,102573.47
2019-03-19T20:34:29.734Z,102583.67
2019-03-19T20:39:23.038Z,102587.18
2019-03-19T20:44:16.188Z,102598.11
2019-03-19T20:49:09.422Z,102599.20
2019-03-19T20:54:04.795Z,102605.42
2019-03-19T20:58:57.839Z,102605.20
2019-03-19T21:03:51.353Z,102607.86
2019-03-19T21:08:44.711Z,102610.32
2019-03-19T21:13:38.050Z,102609.59
2019-03-19T21:18:31.345Z,102615.91
2019-03-19T21:23:24.789Z,102629.70
2019-03-19T21:28:18.036Z,102624.69
2019-03-19T21:33:11.171Z,102635.20
2019-03-19T21:38:04.545Z,102638.44
2019-03-19T21:42:59.078Z,102648.95
2019-03-19T21:47:52.370Z,102655.78
2019-03-19T21:52:45.774Z,102654.05
2019-03-19T21:57:39.020Z,102651.28
2019-03-19T22:02:32.221Z,102652.91
2019-03-19T22:07:25.534Z,102653.01
2019-03-19T22:12:18.635Z,102656.76
2019-03-19T22:17:11.784Z,102653.92
2019-03-19T22:22:05.051Z,102651.92
2019-03-19T22:26:58.734Z,102656.75
2019-03-19T22:31:51.973Z,102657.57
2019-03-19T22:36:45.282Z,102657.00
2019-03-19T22:41:38.494Z,102655.33
2019-03-19T22:46:31.836Z,102661.43
2019-03-19T22:51:25.194Z,102661.25
2019-03-19T22:56:18.560Z,102678.01
2019-03-19T23:01:14.851Z,102679.45
2019-03-19T23:06:08.034Z,102682.41
2019-03-19T23:11:01.647Z,102687.36
2019-03-19T23:15:55.041Z,102693.61
2019-03-19T23:20:48.744Z,102698.05
2019-03-19T23:25:41.948Z,102703.50
2019-03-19T23:30:35.052Z,102702.92
2019-03-19T23:35:28.369Z,102695.59
2019-03-19T23:40:21.717Z,102700.68
2019-03-19T23:45:15.528Z,102691.13
2019-03-19T23:50:11.792Z,102691.86
2019-03-19T23:55:05.714Z,102681.98
2019-03-19T23:59:59.353Z,102687.95
